createdAt,value
2023-03-17T00:02:24.989Z,100812.75
2023-03-17T00:04:53.359Z,100811.66
2023-03-17T00:07:21.462Z,100814.56
2023-03-17T00:14:09.735Z,100822.95
2023-03-17T00:16:43.256Z,100817.98
2023-03-17T00:19:17.469Z,100821.73
2023-03-17T00:21:47.445Z,100819.17
2023-03-17T00:24:16.583Z,100818.15
2023-03-17T00:26:45.563Z,100813.45
2023-03-17T00:29:14.419Z,100806.27
2023-03-17T00:31:45.953Z,100802.38
2023-03-17T00:34:18.702Z,100801.63
2023-03-17T00:36:51.004Z,100786.20
2023-03-17T00:39:20.224Z,100780.64
2023-03-17T00:41:49.552Z,100785.12
2023-03-17T00:44:19.095Z,100782.04
2023-03-17T00:46:47.830Z,100774.98
2023-03-17T00:49:22.460Z,100765.42
2023-03-17T00:51:51.823Z,100761.00
2023-03-17T00:54:21.156Z,100759.48
2023-03-17T00:56:51.242Z,100760.74
2023-03-17T00:59:30.236Z,100757.98
2023-03-17T01:01:59.216Z,100758.45
2023-03-17T01:04:28.259Z,100760.13
2023-03-17T01:06:59.318Z,100751.11
2023-03-17T01:09:29.120Z,100751.29
2023-03-17T01:12:00.140Z,100744.30
2023-03-17T01:14:29.624Z,100738.20
2023-03-17T01:16:58.624Z,100732.85
2023-03-17T01:19:27.970Z,100734.41
2023-03-17T01:21:57.068Z,100736.00
2023-03-17T01:24:27.087Z,100734.29
2023-03-17T01:26:56.099Z,100731.45
2023-03-17T01:29:25.181Z,100729.50
2023-03-17T01:31:54.440Z,100723.69
2023-03-17T01:34:23.610Z,100719.42
2023-03-17T01:36:52.591Z,100712.84
2023-03-17T01:39:21.588Z,100714.48
2023-03-17T01:41:52.541Z,100715.85
2023-03-17T01:44:21.360Z,100718.69
2023-03-17T01:46:50.448Z,100726.94
2023-03-17T01:49:33.642Z,100729.33
2023-03-17T01:52:22.151Z,100731.36
2023-03-17T01:54:57.229Z,100726.67
2023-03-17T01:57:35.032Z,100718.70
2023-03-17T02:00:16.642Z,100714.13
2023-03-17T02:02:49.200Z,100706.25
2023-03-17T02:05:21.601Z,100701.86
2023-03-17T02:07:51.559Z,100699.62
2023-03-17T02:10:22.632Z,100695.52
2023-03-17T02:12:57.124Z,100690.82
2023-03-17T02:15:37.836Z,100691.61
2023-03-17T02:18:08.624Z,100692.08
2023-03-17T02:20:38.881Z,100692.65
2023-03-17T02:23:08.278Z,100687.36
2023-03-17T02:25:37.888Z,100689.30
2023-03-17T02:28:14.492Z,100689.32
2023-03-17T02:30:43.735Z,100689.03
2023-03-17T02:33:13.068Z,100686.57
2023-03-17T02:35:42.578Z,100687.73
2023-03-17T02:38:11.460Z,100691.80
2023-03-17T02:40:40.392Z,100688.39
2023-03-17T02:43:09.459Z,100688.95
2023-03-17T02:45:38.338Z,100689.48
2023-03-17T02:48:07.613Z,100687.80
2023-03-17T02:50:37.044Z,100687.30
2023-03-17T02:53:05.987Z,100691.54
2023-03-17T02:55:34.929Z,100688.05
2023-03-17T02:58:04.073Z,100682.36
2023-03-17T03:00:34.425Z,100675.86
2023-03-17T03:03:05.493Z,100668.47
2023-03-17T03:05:36.296Z,100667.63
2023-03-17T03:08:05.435Z,100665.54
2023-03-17T03:10:35.714Z,100664.50
2023-03-17T03:13:05.437Z,100670.61
2023-03-17T03:15:35.392Z,100663.20
2023-03-17T03:18:04.631Z,100653.89
2023-03-17T03:20:33.429Z,100661.26
2023-03-17T03:23:02.348Z,100664.64
2023-03-17T03:25:31.968Z,100662.64
2023-03-17T03:28:01.634Z,100656.70
2023-03-17T03:30:30.805Z,100651.63
2023-03-17T03:33:00.104Z,100650.23
2023-03-17T03:35:30.020Z,100658.25
2023-03-17T03:37:59.028Z,100658.04
2023-03-17T03:40:28.639Z,100660.82
2023-03-17T03:42:57.915Z,100660.15
2023-03-17T03:45:27.392Z,100654.85
2023-03-17T03:47:56.739Z,100643.10
2023-03-17T03:50:26.037Z,100636.79
2023-03-17T03:52:55.065Z,100638.73
2023-03-17T03:55:24.024Z,100646.41
2023-03-17T03:57:53.222Z,100644.21
2023-03-17T04:00:23.364Z,100642.39
2023-03-17T04:02:52.506Z,100647.13
2023-03-17T04:05:21.423Z,100648.27
2023-03-17T04:07:50.621Z,100643.83
2023-03-17T04:10:19.547Z,100641.98
2023-03-17T04:12:48.289Z,100643.48
2023-03-17T04:15:18.885Z,100639.61
2023-03-17T04:17:48.305Z,100645.20
2023-03-17T04:20:18.137Z,100647.52
2023-03-17T04:22:47.417Z,100646.56
2023-03-17T04:25:16.411Z,100642.77
2023-03-17T04:27:45.372Z,100644.58
2023-03-17T04:30:15.030Z,100636.54
2023-03-17T04:32:44.453Z,100628.48
2023-03-17T04:35:19.098Z,100621.80
2023-03-17T04:37:48.860Z,100627.30
2023-03-17T04:40:19.094Z,100631.05
2023-03-17T04:42:47.921Z,100633.52
2023-03-17T04:45:17.147Z,100644.20
2023-03-17T04:47:49.113Z,100642.56
2023-03-17T04:50:18.384Z,100641.65
2023-03-17T04:52:47.582Z,100639.92
2023-03-17T04:55:16.917Z,100633.41
2023-03-17T04:57:46.294Z,100630.41
2023-03-17T05:00:15.906Z,100629.34
2023-03-17T05:02:44.879Z,100631.84
2023-03-17T05:05:14.055Z,100625.94
2023-03-17T05:07:45.320Z,100620.31
2023-03-17T05:10:14.185Z,100615.27
2023-03-17T05:12:43.310Z,100610.69
2023-03-17T05:15:12.776Z,100616.36
2023-03-17T05:17:41.637Z,100626.15
2023-03-17T05:20:11.073Z,100627.28
2023-03-17T05:22:40.340Z,100621.62
2023-03-17T05:25:09.590Z,100612.92
2023-03-17T05:27:38.432Z,100619.23
2023-03-17T05:30:08.845Z,100622.78
2023-03-17T05:32:37.632Z,100629.64
2023-03-17T05:35:07.450Z,100626.39
2023-03-17T05:37:36.461Z,100625.80
2023-03-17T05:40:05.859Z,100632.70
2023-03-17T05:42:34.954Z,100632.11
2023-03-17T05:45:05.711Z,100633.69
2023-03-17T05:47:34.918Z,100634.42
2023-03-17T05:50:05.210Z,100634.10
2023-03-17T05:52:34.068Z,100629.32
2023-03-17T05:55:03.440Z,100627.13
2023-03-17T05:57:32.338Z,100622.60
2023-03-17T06:00:01.446Z,100620.45
2023-03-17T06:02:30.811Z,100628.09
2023-03-17T06:04:59.747Z,100622.61
2023-03-17T06:07:38.180Z,100614.91
2023-03-17T06:10:18.912Z,100618.21
2023-03-17T06:12:48.001Z,100614.70
2023-03-17T06:15:17.523Z,100618.39
2023-03-17T06:17:46.884Z,100616.61
2023-03-17T06:20:16.301Z,100614.83
2023-03-17T06:23:02.155Z,100612.48
2023-03-17T06:25:33.786Z,100609.55
2023-03-17T06:28:04.574Z,100601.43
2023-03-17T06:30:34.392Z,100599.25
2023-03-17T06:33:04.019Z,100605.46
2023-03-17T06:35:33.976Z,100600.80
2023-03-17T06:38:04.019Z,100599.67
2023-03-17T06:40:34.408Z,100602.99
2023-03-17T06:43:03.550Z,100599.98
2023-03-17T06:45:33.413Z,100604.36
2023-03-17T06:48:02.855Z,100600.40
2023-03-17T06:50:32.082Z,100595.20
2023-03-17T06:53:01.357Z,100593.08
2023-03-17T06:55:30.589Z,100592.73
2023-03-17T06:57:59.580Z,100591.27
2023-03-17T07:00:28.437Z,100589.60
2023-03-17T07:02:58.087Z,100592.24
2023-03-17T07:05:27.252Z,100591.52
2023-03-17T07:07:56.353Z,100595.18
2023-03-17T07:10:25.958Z,100597.89
2023-03-17T07:12:55.481Z,100597.44
2023-03-17T07:15:25.109Z,100596.36
2023-03-17T07:17:54.710Z,100593.10
2023-03-17T07:20:23.760Z,100585.04
2023-03-17T07:22:52.780Z,100583.10
2023-03-17T07:25:22.777Z,100583.73
2023-03-17T07:27:52.417Z,100584.48
2023-03-17T07:30:22.284Z,100587.34
2023-03-17T07:32:51.578Z,100585.95
2023-03-17T07:35:20.753Z,100585.61
2023-03-17T07:37:50.914Z,100586.77
2023-03-17T07:40:19.865Z,100587.57
2023-03-17T07:42:48.762Z,100581.92
2023-03-17T07:45:17.703Z,100578.05
2023-03-17T07:47:46.878Z,100572.55
2023-03-17T07:50:15.890Z,100576.02
2023-03-17T07:52:44.760Z,100571.45
2023-03-17T07:55:20.085Z,100574.96
2023-03-17T07:57:54.083Z,100580.71
2023-03-17T08:00:24.961Z,100582.45
2023-03-17T08:03:08.898Z,100573.70
2023-03-17T08:05:43.072Z,100565.16
2023-03-17T08:08:13.734Z,100558.75
2023-03-17T08:10:45.438Z,100557.74
2023-03-17T08:13:17.270Z,100551.98
2023-03-17T08:15:48.989Z,100542.77
2023-03-17T08:18:20.376Z,100550.30
2023-03-17T08:20:53.806Z,100539.67
2023-03-17T08:23:27.785Z,100540.10
2023-03-17T08:26:01.241Z,100539.14
2023-03-17T08:28:32.921Z,100537.43
2023-03-17T08:31:19.487Z,100533.53
2023-03-17T08:33:56.328Z,100528.16
2023-03-17T08:36:29.627Z,100525.84
2023-03-17T08:39:03.567Z,100529.94
2023-03-17T08:41:38.712Z,100536.60
2023-03-17T08:44:11.776Z,100542.20
2023-03-17T08:46:44.346Z,100546.57
2023-03-17T08:49:18.381Z,100544.16
2023-03-17T08:51:49.402Z,100545.84
2023-03-17T08:54:18.306Z,100541.81
2023-03-17T08:56:57.824Z,100538.73
2023-03-17T08:59:27.362Z,100544.89
2023-03-17T14:02:44.913Z,100275.45
2023-03-17T14:05:29.563Z,100276.24
2023-03-17T14:08:11.225Z,100274.91
2023-03-17T14:10:47.821Z,100272.91
2023-03-17T14:13:44.695Z,100266.45
2023-03-17T14:16:53.084Z,100261.90
2023-03-17T14:24:35.806Z,100246.61
2023-03-17T14:27:08.307Z,100240.60
2023-03-17T14:29:37.204Z,100232.67
2023-03-17T14:32:16.677Z,100231.80
2023-03-17T14:34:58.509Z,100227.55
2023-03-17T14:37:27.871Z,100220.69
2023-03-17T14:39:57.625Z,100223.05
2023-03-17T14:42:30.767Z,100215.16
2023-03-17T14:45:01.785Z,100211.36
2023-03-17T14:47:37.249Z,100215.79
2023-03-17T14:50:13.482Z,100211.83
2023-03-17T14:52:41.544Z,100206.86
2023-03-17T14:55:14.528Z,100207.12
2023-03-17T14:57:42.540Z,100193.00
2023-03-17T15:00:22.760Z,100185.52
2023-03-17T15:02:58.906Z,100188.76
2023-03-17T15:05:40.395Z,100192.03
2023-03-17T15:08:48.040Z,100190.42
2023-03-17T15:11:23.890Z,100191.83
2023-03-17T15:13:56.933Z,100186.81
2023-03-17T15:16:29.883Z,100187.96
2023-03-17T15:19:15.272Z,100182.19
2023-03-17T15:21:43.378Z,100188.45
2023-03-17T15:24:33.760Z,100191.12
2023-03-17T15:27:21.316Z,100183.30
2023-03-17T15:38:55.858Z,100185.25
2023-03-17T15:41:23.697Z,100187.91
2023-03-17T15:43:51.790Z,100185.67
2023-03-17T15:46:24.489Z,100188.07
2023-03-17T15:48:52.425Z,100188.60
2023-03-17T15:51:20.303Z,100186.31
2023-03-17T15:53:48.282Z,100186.71
2023-03-17T15:56:19.197Z,100186.06
2023-03-17T15:58:49.624Z,100186.49
2023-03-17T16:01:17.965Z,100187.35
2023-03-17T16:03:47.149Z,100185.38
2023-03-17T16:06:21.606Z,100183.84
2023-03-17T16:08:49.842Z,100180.84
2023-03-17T16:11:23.307Z,100175.98
2023-03-17T16:13:51.088Z,100175.58
2023-03-17T16:16:26.457Z,100172.41
2023-03-17T16:18:54.249Z,100170.45
2023-03-17T16:21:22.252Z,100168.75
2023-03-17T16:23:50.285Z,100170.98
2023-03-17T16:26:36.324Z,100173.94
2023-03-17T16:29:12.681Z,100173.61
2023-03-17T16:31:41.050Z,100175.64
2023-03-17T16:34:22.505Z,100177.45
2023-03-17T16:36:51.356Z,100174.56
2023-03-17T16:39:22.571Z,100177.98
2023-03-17T16:41:50.628Z,100166.05
2023-03-17T16:44:20.388Z,100168.10
2023-03-17T16:46:48.549Z,100170.86
2023-03-17T16:49:19.084Z,100172.80
2023-03-17T16:51:48.747Z,100173.74
2023-03-17T16:54:17.849Z,100175.70
2023-03-17T16:56:45.760Z,100177.02
2023-03-17T16:59:22.194Z,100180.65
2023-03-17T17:01:50.260Z,100178.50
2023-03-17T17:04:18.095Z,100178.53
2023-03-17T17:06:47.423Z,100175.84
2023-03-17T17:09:16.864Z,100179.01
2023-03-17T17:11:44.630Z,100174.94
2023-03-17T17:14:12.673Z,100177.08
2023-03-17T17:16:40.707Z,100179.58
2023-03-17T17:19:18.993Z,100182.14
2023-03-17T17:21:47.909Z,100183.60
2023-03-17T17:24:18.220Z,100187.02
2023-03-17T17:26:46.026Z,100188.47
2023-03-17T17:29:13.758Z,100191.74
2023-03-17T17:31:41.840Z,100191.79
2023-03-17T17:34:09.845Z,100188.66
2023-03-17T17:36:37.701Z,100183.83
2023-03-17T17:39:06.784Z,100186.61
2023-03-17T17:41:34.815Z,100184.52
2023-03-17T17:44:02.734Z,100186.73
2023-03-17T17:46:30.801Z,100181.98
2023-03-17T17:48:58.720Z,100182.29
2023-03-17T17:51:28.180Z,100179.98
2023-03-17T17:53:56.632Z,100177.10
2023-03-17T17:56:24.691Z,100177.02
2023-03-17T17:58:52.484Z,100176.16
2023-03-17T18:01:22.595Z,100173.81
2023-03-17T18:03:50.511Z,100172.39
2023-03-17T18:06:18.444Z,100168.52
2023-03-17T18:08:46.368Z,100166.58
2023-03-17T18:11:14.204Z,100159.54
2023-03-17T18:13:42.182Z,100158.24
2023-03-17T18:16:18.222Z,100156.64
2023-03-17T18:18:47.217Z,100161.05
2023-03-17T18:21:15.951Z,100164.52
2023-03-17T18:23:47.264Z,100164.21
2023-03-17T18:26:16.303Z,100170.34
2023-03-17T18:28:44.521Z,100169.79
2023-03-17T18:31:16.703Z,100167.19
2023-03-17T18:33:45.164Z,100170.17
2023-03-17T18:36:13.193Z,100171.58
2023-03-17T18:38:41.062Z,100167.88
2023-03-17T18:41:11.040Z,100167.34
2023-03-17T18:43:41.021Z,100170.56
2023-03-17T18:46:08.809Z,100172.67
2023-03-17T18:48:36.571Z,100169.20
2023-03-17T18:51:04.656Z,100172.08
2023-03-17T18:53:34.580Z,100170.55
2023-03-17T18:56:02.817Z,100169.66
2023-03-17T18:58:30.897Z,100167.10
2023-03-17T19:01:01.513Z,100168.61
2023-03-17T19:03:32.020Z,100164.36
2023-03-17T19:06:08.936Z,100162.25
2023-03-17T19:08:38.312Z,100165.88
2023-03-17T19:11:07.840Z,100163.65
2023-03-17T19:13:37.354Z,100167.55
2023-03-17T19:16:07.551Z,100168.55
2023-03-17T19:18:36.961Z,100168.65
2023-03-17T19:21:05.240Z,100168.44
2023-03-17T19:23:33.752Z,100161.30
2023-03-17T19:26:02.763Z,100160.23
2023-03-17T19:28:31.642Z,100157.54
2023-03-17T19:30:59.521Z,100152.79
2023-03-17T19:33:28.861Z,100151.55
2023-03-17T19:35:59.911Z,100146.14
2023-03-17T19:38:28.088Z,100142.92
2023-03-17T19:40:56.020Z,100143.26
2023-03-17T19:43:39.478Z,100144.48
2023-03-17T19:46:10.059Z,100145.20
2023-03-17T19:48:38.353Z,100146.41
2023-03-17T19:51:06.756Z,100145.79
2023-03-17T19:53:34.658Z,100149.56
2023-03-17T19:56:02.432Z,100156.92
2023-03-17T19:58:30.636Z,100154.81
2023-03-17T20:00:58.441Z,100156.30
2023-03-17T20:03:26.505Z,100148.52
2023-03-17T20:05:54.422Z,100147.39
2023-03-17T20:08:22.556Z,100148.33
2023-03-17T20:10:52.856Z,100146.72
2023-03-17T20:13:21.901Z,100146.00
2023-03-17T20:15:51.503Z,100144.17
2023-03-17T20:18:19.810Z,100139.13
2023-03-17T20:20:54.912Z,100135.81
2023-03-17T20:23:23.702Z,100135.48
2023-03-17T20:25:52.677Z,100136.35
2023-03-17T20:28:24.122Z,100137.45
2023-03-17T20:30:52.025Z,100136.56
2023-03-17T20:33:19.954Z,100135.95
2023-03-17T20:35:48.093Z,100136.73
2023-03-17T20:38:16.035Z,100141.76
2023-03-17T20:40:43.910Z,100143.46
2023-03-17T20:43:11.756Z,100148.22
2023-03-17T20:45:39.780Z,100145.33
2023-03-17T20:48:11.197Z,100144.89
2023-03-17T20:50:41.064Z,100144.21
2023-03-17T20:53:08.838Z,100142.29
2023-03-17T20:55:37.530Z,100141.55
2023-03-17T20:58:05.294Z,100149.17
2023-03-17T21:00:33.498Z,100146.30
2023-03-17T21:03:02.132Z,100145.34
2023-03-17T21:05:30.282Z,100144.19
2023-03-17T21:07:58.332Z,100142.08
2023-03-17T21:10:26.088Z,100132.71
2023-03-17T21:12:53.936Z,100132.43
2023-03-17T21:15:23.582Z,100126.79
2023-03-17T21:17:51.384Z,100123.11
2023-03-17T21:20:21.154Z,100121.90
2023-03-17T21:22:48.920Z,100119.73
2023-03-17T21:25:16.785Z,100114.92
2023-03-17T21:27:45.696Z,100111.32
2023-03-17T21:30:14.459Z,100115.56
2023-03-17T21:32:42.435Z,100113.20
2023-03-17T21:35:10.622Z,100111.97
2023-03-17T21:37:38.478Z,100107.44
2023-03-17T21:40:07.017Z,100107.81
2023-03-17T21:42:35.004Z,100106.59
2023-03-17T21:45:02.874Z,100100.95
2023-03-17T21:47:30.685Z,100099.05
2023-03-17T21:49:58.432Z,100091.80
2023-03-17T21:52:26.337Z,100094.45
2023-03-17T21:54:54.860Z,100093.87
2023-03-17T21:57:22.877Z,100097.61
2023-03-17T21:59:50.751Z,100088.33
2023-03-17T22:02:18.796Z,100083.27
2023-03-17T22:04:47.197Z,100087.91
2023-03-17T22:07:16.787Z,100086.73
2023-03-17T22:09:45.028Z,100084.14
2023-03-17T22:12:13.667Z,100084.30
2023-03-17T22:14:41.688Z,100081.59
2023-03-17T22:17:10.097Z,100083.63
2023-03-17T22:19:37.943Z,100086.45
2023-03-17T22:22:05.803Z,100084.56
2023-03-17T22:24:34.022Z,100081.74
2023-03-17T22:27:01.822Z,100081.13
2023-03-17T22:29:30.497Z,100083.61
2023-03-17T22:31:59.128Z,100082.79
2023-03-17T22:34:27.497Z,100084.27
2023-03-17T22:36:55.403Z,100080.85
2023-03-17T22:39:23.201Z,100073.54
2023-03-17T22:41:51.164Z,100071.66
2023-03-17T22:44:19.195Z,100074.56
2023-03-17T22:46:47.171Z,100077.94
2023-03-17T22:49:15.162Z,100076.27
2023-03-17T22:51:43.101Z,100075.27
2023-03-17T22:54:12.217Z,100072.45
2023-03-17T22:56:40.176Z,100067.55
2023-03-17T22:59:07.899Z,100066.48
2023-03-17T23:01:35.803Z,100065.48
2023-03-17T23:04:03.689Z,100058.13
2023-03-17T23:06:31.777Z,100064.55
2023-03-17T23:08:59.584Z,100060.44
2023-03-17T23:11:28.088Z,100063.95
2023-03-17T23:13:55.909Z,100060.90
2023-03-17T23:16:24.047Z,100061.05
2023-03-17T23:18:52.713Z,100063.20
2023-03-17T23:21:29.566Z,100057.66
2023-03-17T23:23:57.676Z,100059.58
2023-03-17T23:26:25.657Z,100059.30
2023-03-17T23:28:53.791Z,100057.21
2023-03-17T23:31:22.590Z,100057.23
2023-03-17T23:33:51.269Z,100059.20
2023-03-17T23:36:19.671Z,100053.68
2023-03-17T23:38:48.622Z,100052.45
2023-03-17T23:41:17.442Z,100045.20
2023-03-17T23:43:46.637Z,100048.07
2023-03-17T23:46:14.883Z,100042.55
2023-03-17T23:48:43.266Z,100042.85
2023-03-17T23:51:12.669Z,100037.66
2023-03-17T23:53:41.925Z,100039.46
2023-03-17T23:56:11.455Z,100035.98
2023-03-17T23:58:43.297Z,100038.20
